Time;durP1;ratioP1;P1;durP2;ratioP2;P2;SDS_P1;SDS_P2;PMS_P1;PMS_P2;Temp;Humidity;BMP_temperature;BMP_pressure;BME280_temperature;BME280_humidity;BME280_pressure;Samples;Min_cycle;Max_cycle;Signal;HPM_P1;HPM_P2
2022/11/19 00:01:56;;;;;;;703.33;629.87;;;8.50;99.90;;;;;;4977233;28;20524;-86
2022/11/19 00:04:23;;;;;;;702.23;628.27;;;8.60;99.90;;;;;;4976303;28;20465;-85
2022/11/19 00:06:51;;;;;;;707.77;633.10;;;8.60;99.90;;;;;;4976671;28;20523;-85
2022/11/19 00:09:18;;;;;;;718.47;644.60;;;8.60;99.90;;;;;;4976789;28;20876;-86
2022/11/19 00:14:29;;;;;;;713.43;638.57;;;8.50;99.90;;;;;;4976712;28;20490;-86
2022/11/19 00:16:56;;;;;;;755.03;681.00;;;8.50;99.90;;;;;;4976939;28;20844;-87
2022/11/19 00:19:23;;;;;;;744.43;670.20;;;8.50;99.90;;;;;;4976911;28;20899;-85
2022/11/19 00:21:51;;;;;;;730.57;656.33;;;8.50;99.90;;;;;;4975437;28;20488;-84
2022/11/19 00:24:18;;;;;;;693.73;621.07;;;8.50;99.90;;;;;;4976541;28;20469;-84
2022/11/19 00:26:45;;;;;;;704.10;630.50;;;8.60;99.90;;;;;;4977887;28;20501;-85
2022/11/19 00:29:12;;;;;;;692.47;620.20;;;8.50;99.90;;;;;;4979212;28;20486;-86
2022/11/19 00:31:38;;;;;;;687.03;614.73;;;8.50;99.90;;;;;;4978279;28;20447;-86
2022/11/19 00:34:05;;;;;;;692.40;619.20;;;8.50;99.90;;;;;;4979554;28;20463;-86
2022/11/19 00:36:32;;;;;;;706.10;632.33;;;8.50;99.90;;;;;;4978721;28;20451;-86
2022/11/19 00:39:00;;;;;;;712.70;638.90;;;8.50;99.90;;;;;;4978649;28;20997;-85
2022/11/19 00:41:27;;;;;;;716.77;642.37;;;8.60;99.90;;;;;;4978628;28;20451;-86
2022/11/19 00:43:54;;;;;;;704.27;630.13;;;8.60;99.90;;;;;;4979147;28;20818;-87
2022/11/19 00:46:23;;;;;;;710.70;635.50;;;8.50;99.90;;;;;;4979136;28;20461;-86
2022/11/19 00:48:52;;;;;;;704.60;630.67;;;8.50;99.90;;;;;;4979146;28;20975;-85
2022/11/19 00:51:19;;;;;;;699.80;625.50;;;8.50;99.90;;;;;;4979339;28;20458;-85
2022/11/19 00:53:47;;;;;;;692.70;617.80;;;8.50;99.90;;;;;;4979486;28;20459;-86
2022/11/19 00:56:17;;;;;;;715.33;640.40;;;8.50;99.90;;;;;;4979804;28;20450;-86
2022/11/19 00:58:44;;;;;;;738.70;664.03;;;8.60;99.90;;;;;;4979328;28;20499;-86
2022/11/19 01:01:11;;;;;;;728.23;653.43;;;8.50;99.90;;;;;;4978547;28;20884;-87
2022/11/19 01:03:39;;;;;;;711.87;636.23;;;8.50;99.90;;;;;;4979660;28;20458;-86
2022/11/19 01:06:07;;;;;;;705.47;631.07;;;8.50;99.90;;;;;;4979280;28;20526;-86
2022/11/19 01:08:34;;;;;;;688.23;613.37;;;8.50;99.90;;;;;;4979351;28;20471;-86
2022/11/19 01:11:05;;;;;;;688.53;613.93;;;8.50;99.90;;;;;;4979017;28;20466;-85
2022/11/19 01:13:35;;;;;;;671.33;599.00;;;8.40;99.90;;;;;;4982631;28;20451;-86
2022/11/19 01:16:02;;;;;;;698.37;624.43;;;8.50;99.90;;;;;;4982871;28;20992;-86
2022/11/19 01:18:29;;;;;;;712.57;636.97;;;8.50;99.90;;;;;;4984166;28;20482;-86
2022/11/19 01:20:56;;;;;;;695.10;621.30;;;8.50;99.90;;;;;;4982706;28;20831;-88
2022/11/19 01:23:23;;;;;;;693.67;620.60;;;8.40;99.90;;;;;;4983920;28;20455;-86
2022/11/19 01:25:50;;;;;;;682.57;609.67;;;8.40;99.90;;;;;;4984030;28;20461;-88
2022/11/19 01:28:16;;;;;;;697.00;622.93;;;8.40;99.90;;;;;;4983854;28;20478;-87
2022/11/19 01:30:44;;;;;;;690.63;618.27;;;8.40;99.90;;;;;;4983101;28;20462;-86
2022/11/19 01:33:11;;;;;;;689.20;617.50;;;8.40;99.90;;;;;;4983701;28;20545;-86
2022/11/19 01:35:38;;;;;;;683.70;615.50;;;8.30;99.90;;;;;;4983018;28;20562;-87
2022/11/19 01:38:06;;;;;;;694.50;630.33;;;8.20;99.90;;;;;;4982426;28;20493;-86
2022/11/19 01:40:33;;;;;;;687.93;623.30;;;8.20;99.90;;;;;;4983318;28;20461;-86
2022/11/19 01:43:00;;;;;;;650.93;591.23;;;8.20;99.90;;;;;;4983292;28;20529;-86
2022/11/19 01:45:33;;;;;;;641.80;587.00;;;8.00;99.90;;;;;;4983524;28;20451;-87
2022/11/19 01:48:06;;;;;;;665.73;615.30;;;7.80;99.90;;;;;;4981964;28;20550;-86
2022/11/19 01:50:35;;;;;;;663.60;612.73;;;7.60;99.90;;;;;;4981394;28;20461;-85
2022/11/19 01:53:04;;;;;;;651.37;602.53;;;7.50;99.90;;;;;;4983345;28;20466;-87
2022/11/19 01:55:31;;;;;;;660.77;612.50;;;7.40;99.90;;;;;;4981378;28;20451;-86
2022/11/19 01:58:01;;;;;;;675.77;626.30;;;7.30;99.90;;;;;;4982019;28;20497;-87
2022/11/19 02:00:28;;;;;;;666.20;615.10;;;7.30;99.90;;;;;;4982162;28;20462;-87
2022/11/19 02:02:55;;;;;;;659.80;613.53;;;7.30;99.90;;;;;;4982271;28;20469;-85
2022/11/19 02:05:24;;;;;;;659.10;612.10;;;7.20;99.90;;;;;;4981574;28;20458;-87
2022/11/19 02:07:54;;;;;;;663.73;620.40;;;7.20;99.90;;;;;;4981625;28;20483;-87
2022/11/19 02:10:35;;;;;;;653.37;613.30;;;7.00;99.90;;;;;;4980836;28;20451;-86
2022/11/19 02:13:11;;;;;;;631.97;596.27;;;6.90;99.90;;;;;;4981303;28;20498;-86
2022/11/19 02:15:46;;;;;;;635.30;600.00;;;6.80;99.90;;;;;;4982048;28;20450;-87
2022/11/19 02:18:34;;;;;;;653.27;614.97;;;6.80;99.90;;;;;;4981633;28;20880;-87
2022/11/19 02:21:27;;;;;;;624.97;589.87;;;6.80;99.90;;;;;;4982582;28;20484;-87
2022/11/19 02:24:33;;;;;;;613.90;580.90;;;6.70;99.90;;;;;;4981627;28;20819;-85
2022/11/19 02:27:35;;;;;;;576.23;548.57;;;6.50;99.90;;;;;;4982578;28;20455;-87
2022/11/19 02:30:08;;;;;;;558.20;532.70;;;6.50;99.90;;;;;;4961642;29;20477;-86
2022/11/19 02:32:40;;;;;;;558.53;533.57;;;6.40;99.90;;;;;;4963737;28;20466;-86
2022/11/19 02:35:15;;;;;;;561.80;536.50;;;6.40;99.90;;;;;;4981681;28;20968;-85
2022/11/19 02:37:47;;;;;;;565.27;539.77;;;6.30;99.90;;;;;;4980631;28;20475;-85
2022/11/19 02:40:20;;;;;;;590.13;562.03;;;6.30;99.90;;;;;;4981494;28;20834;-86
2022/11/19 02:42:53;;;;;;;596.67;568.47;;;6.20;99.90;;;;;;4981215;28;20450;-85
2022/11/19 02:45:26;;;;;;;598.83;569.83;;;6.10;99.90;;;;;;4981159;28;20451;-85
2022/11/19 02:47:56;;;;;;;596.47;568.70;;;6.10;99.90;;;;;;4980426;28;20470;-85
2022/11/19 02:50:28;;;;;;;586.20;559.43;;;6.10;99.90;;;;;;4980786;28;20467;-87
2022/11/19 02:52:55;;;;;;;575.27;548.67;;;6.00;99.90;;;;;;4981301;28;20459;-86
2022/11/19 02:55:23;;;;;;;599.07;570.33;;;5.90;99.90;;;;;;4980910;28;20491;-86
2022/11/19 02:57:58;;;;;;;592.50;565.60;;;5.90;99.90;;;;;;4980432;28;21051;-85
2022/11/19 03:06:01;;;;;;;585.50;558.03;;;5.70;99.90;;;;;;4981762;28;20525;-86
2022/11/19 03:08:28;;;;;;;596.77;568.33;;;5.60;99.90;;;;;;4980844;28;20471;-86
2022/11/19 03:11:05;;;;;;;593.07;564.50;;;5.70;99.90;;;;;;4979692;28;20455;-87
2022/11/19 03:16:42;;;;;;;562.33;537.20;;;5.50;99.90;;;;;;4980147;28;20938;-85
2022/11/19 03:19:33;;;;;;;576.70;550.87;;;5.30;99.90;;;;;;4980911;28;20885;-87
2022/11/19 03:22:05;;;;;;;586.03;558.63;;;5.40;99.90;;;;;;4980586;28;20462;-86
2022/11/19 03:24:36;;;;;;;579.67;552.87;;;5.40;99.90;;;;;;4980230;28;20538;-86
2022/11/19 03:27:08;;;;;;;583.23;556.47;;;5.30;99.90;;;;;;4980519;28;20455;-87
2022/11/19 03:29:38;;;;;;;586.10;559.27;;;5.20;99.90;;;;;;4978479;28;20498;-85
2022/11/19 03:32:11;;;;;;;575.33;550.07;;;5.20;99.90;;;;;;4969496;28;20451;-85
2022/11/19 03:34:39;;;;;;;565.93;540.33;;;5.10;99.90;;;;;;4979053;28;20479;-85
2022/11/19 03:37:08;;;;;;;558.87;534.87;;;5.10;99.90;;;;;;4978191;28;20457;-84
2022/11/19 03:39:37;;;;;;;551.17;527.00;;;5.00;99.90;;;;;;4980380;28;20489;-86
2022/11/19 03:42:07;;;;;;;567.37;540.87;;;5.10;99.90;;;;;;4978816;28;20961;-86
2022/11/19 03:44:38;;;;;;;583.23;555.10;;;5.10;99.90;;;;;;4973826;28;20930;-84
2022/11/19 03:47:11;;;;;;;577.57;550.27;;;5.10;99.90;;;;;;4974289;28;20458;-87
2022/11/19 03:49:42;;;;;;;588.63;560.73;;;5.10;99.90;;;;;;4978644;28;21143;-86
2022/11/19 03:52:17;;;;;;;593.80;564.80;;;5.10;99.90;;;;;;4979426;28;20455;-86
2022/11/19 03:54:44;;;;;;;591.30;562.80;;;4.90;99.90;;;;;;4971602;28;20454;-83
2022/11/19 03:57:14;;;;;;;601.27;571.10;;;5.00;99.90;;;;;;4961471;28;20459;-86
2022/11/19 03:59:41;;;;;;;602.87;573.30;;;4.90;99.90;;;;;;4979626;28;20574;-86
2022/11/19 04:02:11;;;;;;;593.43;564.10;;;4.80;99.90;;;;;;4978893;28;21156;-85
2022/11/19 04:04:39;;;;;;;609.57;576.97;;;4.90;99.90;;;;;;4980329;28;20459;-86
2022/11/19 04:07:08;;;;;;;610.97;580.57;;;4.90;99.90;;;;;;4979170;28;20461;-87
2022/11/19 04:09:35;;;;;;;607.57;577.50;;;4.90;99.90;;;;;;4976424;28;20468;-87
2022/11/19 04:12:02;;;;;;;612.73;581.37;;;4.80;99.90;;;;;;4960020;28;20472;-86
2022/11/19 04:14:29;;;;;;;628.87;594.97;;;4.80;99.90;;;;;;4960017;28;20664;-85
2022/11/19 04:16:56;;;;;;;635.03;601.83;;;4.70;99.90;;;;;;4959343;28;20467;-86
2022/11/19 04:19:24;;;;;;;639.77;605.57;;;4.70;99.90;;;;;;4959214;28;20488;-85
2022/11/19 04:21:51;;;;;;;652.63;615.27;;;4.70;99.90;;;;;;4963858;28;20456;-86
2022/11/19 04:24:18;;;;;;;650.07;613.63;;;4.60;99.90;;;;;;4979208;28;20478;-85
2022/11/19 04:26:45;;;;;;;662.10;624.73;;;4.60;99.90;;;;;;4978610;28;20461;-86
2022/11/19 04:29:11;;;;;;;680.67;639.80;;;4.60;99.90;;;;;;4979233;28;20483;-85
2022/11/19 04:31:38;;;;;;;664.93;625.40;;;4.60;99.90;;;;;;4978938;28;20461;-85
2022/11/19 04:34:05;;;;;;;665.37;626.27;;;4.60;99.90;;;;;;4977896;28;20474;-86
2022/11/19 04:36:34;;;;;;;664.53;626.93;;;4.60;99.90;;;;;;4978402;28;20466;-86
2022/11/19 04:39:01;;;;;;;662.63;624.53;;;4.50;99.90;;;;;;4978610;28;20860;-86
2022/11/19 04:41:27;;;;;;;637.13;603.10;;;4.60;99.90;;;;;;4978968;28;20513;-85
2022/11/19 04:43:54;;;;;;;636.50;601.77;;;4.50;99.90;;;;;;4979032;28;20455;-86
2022/11/19 04:46:21;;;;;;;628.13;596.27;;;4.50;99.90;;;;;;4979328;28;20459;-86
2022/11/19 04:48:48;;;;;;;624.00;591.80;;;4.60;99.90;;;;;;4978547;28;20479;-86
2022/11/19 04:51:15;;;;;;;625.07;593.50;;;4.50;99.90;;;;;;4978762;28;20606;-85
2022/11/19 04:53:43;;;;;;;622.53;591.03;;;4.50;99.90;;;;;;4977685;28;20534;-85
2022/11/19 04:56:10;;;;;;;631.83;598.93;;;4.50;99.90;;;;;;4959541;28;20486;-86
2022/11/19 04:58:37;;;;;;;630.80;597.60;;;4.40;99.90;;;;;;4959185;28;20511;-86
2022/11/19 05:01:04;;;;;;;629.90;596.13;;;4.40;99.90;;;;;;4959572;28;20459;-87
2022/11/19 05:03:31;;;;;;;642.17;604.57;;;4.40;99.90;;;;;;4959643;28;20846;-86
2022/11/19 05:05:58;;;;;;;641.77;605.87;;;4.30;99.90;;;;;;4959405;28;20456;-86
2022/11/19 05:08:25;;;;;;;648.37;611.87;;;4.30;99.90;;;;;;4959805;28;20589;-86
2022/11/19 05:10:53;;;;;;;643.63;608.57;;;4.40;99.90;;;;;;4958733;28;20467;-85
2022/11/19 05:13:20;;;;;;;664.30;625.10;;;4.30;99.90;;;;;;4958843;28;20460;-85
2022/11/19 05:15:47;;;;;;;665.40;626.07;;;4.40;99.90;;;;;;4974922;28;20458;-86
2022/11/19 05:18:14;;;;;;;655.67;617.90;;;4.30;99.90;;;;;;4978688;28;20487;-86
2022/11/19 05:20:41;;;;;;;643.83;607.93;;;4.30;99.90;;;;;;4978038;28;20463;-86
2022/11/19 05:23:08;;;;;;;650.90;612.43;;;4.30;99.90;;;;;;4979319;28;20454;-86
2022/11/19 05:25:34;;;;;;;675.37;633.40;;;4.20;99.90;;;;;;4978004;28;20465;-86
2022/11/19 05:28:03;;;;;;;682.23;637.03;;;4.40;99.90;;;;;;4977786;28;20922;-86
2022/11/19 05:30:29;;;;;;;682.53;634.77;;;4.50;99.90;;;;;;4976409;28;20551;-84
2022/11/19 05:32:56;;;;;;;684.60;634.30;;;4.50;99.90;;;;;;4977197;28;20456;-86
2022/11/19 05:35:23;;;;;;;684.10;634.13;;;4.50;99.90;;;;;;4978062;28;20814;-86
2022/11/19 05:37:50;;;;;;;686.53;636.40;;;4.50;99.90;;;;;;4977665;28;20507;-86
2022/11/19 05:40:17;;;;;;;667.70;622.70;;;4.50;99.90;;;;;;4978543;28;20454;-85
2022/11/19 05:42:44;;;;;;;671.50;623.37;;;4.50;99.90;;;;;;4977570;28;20851;-86
2022/11/19 05:45:12;;;;;;;669.47;623.47;;;4.50;99.90;;;;;;4977941;28;20462;-84
2022/11/19 05:47:39;;;;;;;687.27;637.20;;;4.40;99.90;;;;;;4977906;28;20545;-86
2022/11/19 05:50:07;;;;;;;670.60;624.80;;;4.60;99.90;;;;;;4978190;28;20462;-86
2022/11/19 05:52:34;;;;;;;680.07;630.60;;;4.50;99.90;;;;;;4977566;28;20878;-86
2022/11/19 05:55:01;;;;;;;684.40;634.90;;;4.50;99.90;;;;;;4977273;28;20537;-86
2022/11/19 05:57:28;;;;;;;676.30;625.60;;;4.50;99.90;;;;;;4978516;28;20525;-85
2022/11/19 05:59:55;;;;;;;681.40;630.17;;;4.50;99.90;;;;;;4981491;28;20481;-86
2022/11/19 06:02:23;;;;;;;688.43;636.03;;;4.40;99.90;;;;;;4981188;28;20450;-87
2022/11/19 06:04:50;;;;;;;705.50;650.97;;;4.40;99.90;;;;;;4981544;28;20462;-86
2022/11/19 06:07:17;;;;;;;699.27;647.10;;;4.50;99.90;;;;;;4981520;28;20451;-86
2022/11/19 06:09:43;;;;;;;698.33;645.33;;;4.40;99.90;;;;;;4981521;28;20475;-86
2022/11/19 06:12:10;;;;;;;685.63;632.43;;;4.40;99.90;;;;;;4981400;28;20451;-86
2022/11/19 06:14:37;;;;;;;692.83;637.67;;;4.40;99.90;;;;;;4981787;28;20459;-86
2022/11/19 06:17:04;;;;;;;683.77;629.87;;;4.50;99.90;;;;;;4982077;28;20458;-85
2022/11/19 06:19:32;;;;;;;677.40;622.60;;;4.50;99.90;;;;;;4980935;28;20485;-87
2022/11/19 06:21:59;;;;;;;664.67;612.77;;;4.50;99.90;;;;;;4981213;28;20534;-86
2022/11/19 06:24:25;;;;;;;686.60;632.40;;;4.50;99.90;;;;;;4980995;28;20976;-86
2022/11/19 06:26:52;;;;;;;689.03;634.53;;;4.50;99.90;;;;;;4981464;28;20841;-85
2022/11/19 06:29:19;;;;;;;693.53;640.60;;;4.50;99.90;;;;;;4981094;28;20855;-87
2022/11/19 06:31:46;;;;;;;703.17;648.07;;;4.40;99.90;;;;;;4980897;28;20461;-86
2022/11/19 06:34:13;;;;;;;703.27;648.90;;;4.50;99.90;;;;;;4980420;28;20454;-85
2022/11/19 06:36:41;;;;;;;693.07;639.87;;;4.40;99.90;;;;;;4981359;28;20451;-86
2022/11/19 06:39:08;;;;;;;697.50;645.40;;;4.40;99.90;;;;;;4981043;28;20471;-86
2022/11/19 06:41:35;;;;;;;703.70;649.60;;;4.40;99.90;;;;;;4981863;28;20486;-85
2022/11/19 06:44:04;;;;;;;707.10;652.23;;;4.40;99.90;;;;;;4980925;28;20459;-87
2022/11/19 06:46:31;;;;;;;707.87;652.17;;;4.40;99.90;;;;;;4976530;28;20455;-86
2022/11/19 06:48:58;;;;;;;707.00;651.53;;;4.50;99.90;;;;;;4980614;28;20473;-84
2022/11/19 06:51:24;;;;;;;704.60;649.30;;;4.50;99.90;;;;;;4981150;28;20524;-86
2022/11/19 06:53:52;;;;;;;709.30;653.40;;;4.50;99.90;;;;;;4982340;28;20465;-85
2022/11/19 06:59:37;;;;;;;710.60;653.00;;;4.50;99.90;;;;;;4973950;28;20478;-86
2022/11/19 07:02:51;;;;;;;716.77;661.13;;;4.50;99.90;;;;;;4943196;28;20467;-86
2022/11/19 07:05:18;;;;;;;705.63;649.50;;;4.50;99.90;;;;;;4928080;28;20455;-85
2022/11/19 07:07:50;;;;;;;708.53;651.63;;;4.50;99.90;;;;;;4981089;28;20467;-85
2022/11/19 07:10:22;;;;;;;717.57;659.87;;;4.50;99.90;;;;;;4977280;28;20447;-83
2022/11/19 07:12:50;;;;;;;734.07;674.47;;;4.50;99.90;;;;;;4978413;28;20459;-84
2022/11/19 07:15:28;;;;;;;739.10;680.00;;;4.50;99.90;;;;;;4979118;28;20462;-84
2022/11/19 07:17:55;;;;;;;722.20;662.33;;;4.50;99.90;;;;;;4963488;28;20471;-84
2022/11/19 07:20:22;;;;;;;712.60;652.30;;;4.50;99.90;;;;;;4959579;29;20489;-84
2022/11/19 07:22:48;;;;;;;730.20;667.80;;;4.60;99.90;;;;;;4959293;29;20466;-84
2022/11/19 07:25:30;;;;;;;738.73;675.93;;;4.60;99.90;;;;;;4958463;29;20985;-85
2022/11/19 07:27:57;;;;;;;742.93;679.77;;;4.70;99.90;;;;;;4959775;28;20480;-85
2022/11/19 07:30:24;;;;;;;729.07;666.30;;;4.80;99.90;;;;;;4975770;28;20459;-85
2022/11/19 07:32:55;;;;;;;727.97;665.97;;;4.90;99.90;;;;;;4977666;28;20455;-85
2022/11/19 07:35:22;;;;;;;731.07;669.27;;;4.90;99.90;;;;;;4978026;28;20541;-83
2022/11/19 07:37:51;;;;;;;718.77;660.87;;;4.90;99.90;;;;;;4976819;28;20481;-84
2022/11/19 07:40:19;;;;;;;713.60;657.20;;;4.80;99.90;;;;;;4977755;28;20479;-85
2022/11/19 07:42:50;;;;;;;702.20;650.03;;;4.70;99.90;;;;;;4977122;28;21073;-85
2022/11/19 07:45:18;;;;;;;695.27;644.07;;;4.60;99.90;;;;;;4979115;28;20469;-84
2022/11/19 07:47:45;;;;;;;707.27;654.97;;;4.70;99.90;;;;;;4979137;28;20512;-85
2022/11/19 07:50:16;;;;;;;705.47;652.70;;;4.70;99.90;;;;;;4981457;28;20462;-85
2022/11/19 07:52:45;;;;;;;712.83;658.60;;;4.70;99.90;;;;;;4982544;28;20454;-85
2022/11/19 07:55:12;;;;;;;710.43;656.40;;;4.80;99.90;;;;;;4981945;28;20510;-85
2022/11/19 07:58:06;;;;;;;709.00;657.70;;;4.80;99.90;;;;;;4982563;28;20457;-85
2022/11/19 08:00:42;;;;;;;693.43;644.50;;;4.70;99.90;;;;;;4982624;28;20490;-85
2022/11/19 08:03:12;;;;;;;697.80;648.67;;;4.70;99.90;;;;;;4970797;28;20459;-84
2022/11/19 08:05:47;;;;;;;701.63;651.73;;;4.70;99.90;;;;;;4967844;28;20483;-84
2022/11/19 08:08:14;;;;;;;703.07;653.90;;;4.80;99.90;;;;;;4976825;28;20482;-85
2022/11/19 08:10:41;;;;;;;701.63;652.17;;;4.70;99.90;;;;;;4958570;28;20470;-87
2022/11/19 08:13:13;;;;;;;701.00;652.20;;;4.70;99.90;;;;;;4977948;28;20455;-85
2022/11/19 08:15:42;;;;;;;685.43;639.17;;;4.70;99.90;;;;;;4979348;28;20462;-85
2022/11/19 08:18:14;;;;;;;687.13;640.50;;;4.80;99.90;;;;;;4977752;28;20462;-86
2022/11/19 08:20:41;;;;;;;670.50;622.43;;;4.70;99.90;;;;;;4977261;28;20570;-86
2022/11/19 08:23:08;;;;;;;676.40;627.80;;;4.70;99.90;;;;;;4977651;28;20466;-84
2022/11/19 08:25:35;;;;;;;669.73;623.67;;;4.80;99.90;;;;;;4978369;28;20477;-84
2022/11/19 08:28:03;;;;;;;653.77;612.00;;;4.80;99.90;;;;;;4977654;28;20499;-83
2022/11/19 08:30:33;;;;;;;628.60;592.77;;;4.70;99.90;;;;;;4973581;28;20455;-84
2022/11/19 08:33:00;;;;;;;630.03;592.40;;;4.80;99.90;;;;;;4957852;28;20460;-85
2022/11/19 08:35:27;;;;;;;626.00;589.60;;;4.80;99.90;;;;;;4958138;28;20547;-85
2022/11/19 08:37:54;;;;;;;613.38;580.15;;;4.70;99.90;;;;;;4957900;28;20464;-86
2022/11/19 08:40:20;;;;;;;604.80;572.13;;;4.70;99.90;;;;;;4958038;28;20231;-84
2022/11/19 08:42:58;;;;;;;534.33;508.60;;;4.70;99.90;;;;;;4956638;28;20455;-86
2022/11/19 08:45:56;;;;;;;440.03;422.23;;;4.50;99.90;;;;;;4957711;28;20954;-85
2022/11/19 08:48:24;;;;;;;473.93;453.97;;;4.50;99.90;;;;;;4968189;28;20477;-86
2022/11/19 08:50:51;;;;;;;500.30;478.40;;;4.50;99.90;;;;;;4982776;28;20462;-82
2022/11/19 08:53:18;;;;;;;392.88;377.27;;;4.60;99.90;;;;;;4982967;28;20458;-83
2022/11/19 08:55:50;;;;;;;364.37;350.07;;;4.60;99.90;;;;;;4982905;28;20885;-85
2022/11/19 08:58:17;;;;;;;369.52;354.92;;;4.60;99.90;;;;;;4965798;28;20520;-82
2022/11/19 09:00:44;;;;;;;343.53;330.13;;;4.70;99.90;;;;;;4977103;28;20341;-84
2022/11/19 09:03:11;;;;;;;334.33;321.53;;;4.60;99.90;;;;;;4979329;28;20543;-81
2022/11/19 09:05:40;;;;;;;279.03;268.33;;;4.70;99.90;;;;;;4979777;28;20455;-84
2022/11/19 09:08:07;;;;;;;271.90;261.30;;;4.60;99.90;;;;;;4981046;28;20486;-84
2022/11/19 09:10:34;;;;;;;268.77;258.17;;;4.60;99.90;;;;;;4981590;28;20451;-84
2022/11/19 09:13:07;;;;;;;331.87;318.87;;;4.60;99.90;;;;;;4982918;28;20459;-83
2022/11/19 09:15:35;;;;;;;208.67;199.90;;;4.60;99.90;;;;;;4982455;28;20443;-83
2022/11/19 09:18:02;;;;;;;161.67;153.87;;;4.60;99.90;;;;;;4979725;28;20526;-83
2022/11/19 09:20:29;;;;;;;214.80;206.27;;;4.50;99.90;;;;;;4980227;28;20506;-83
2022/11/19 09:22:58;;;;;;;234.47;224.80;;;4.70;99.90;;;;;;4980473;28;20454;-83
2022/11/19 09:25:28;;;;;;;227.30;218.10;;;4.70;99.90;;;;;;4980150;28;20530;-83
2022/11/19 09:27:59;;;;;;;169.53;161.93;;;4.60;99.90;;;;;;4981124;28;20479;-84
2022/11/19 09:30:28;;;;;;;100.83;95.63;;;4.70;99.90;;;;;;4983517;28;20459;-83
2022/11/19 09:33:18;;;;;;;98.87;93.27;;;4.60;99.90;;;;;;4983324;28;20489;-84
2022/11/19 09:35:50;;;;;;;117.13;111.13;;;4.60;99.90;;;;;;4985697;28;20455;-82
2022/11/19 09:38:22;;;;;;;193.20;184.83;;;4.70;99.90;;;;;;4982766;28;20474;-83
2022/11/19 09:40:55;;;;;;;228.17;218.97;;;4.70;99.90;;;;;;4984482;28;20494;-82
2022/11/19 09:43:37;;;;;;;213.30;204.80;;;4.90;99.90;;;;;;4980380;28;20447;-83
2022/11/19 09:46:10;;;;;;;185.20;176.70;;;4.90;99.90;;;;;;4984078;28;20455;-83
2022/11/19 09:48:39;;;;;;;127.30;120.97;;;4.80;99.90;;;;;;4984634;28;20466;-83
2022/11/19 09:51:11;;;;;;;133.40;126.33;;;4.80;99.90;;;;;;4982794;28;20451;-81
2022/11/19 09:53:45;;;;;;;94.77;89.67;;;4.90;99.90;;;;;;4984972;28;20517;-84
2022/11/19 09:56:17;;;;;;;78.43;73.13;;;5.00;99.90;;;;;;4981415;28;20486;-83
2022/11/19 09:58:45;;;;;;;28.93;25.97;;;5.00;99.90;;;;;;4988708;28;20484;-83
2022/11/19 10:01:14;;;;;;;36.83;33.63;;;4.90;99.90;;;;;;4987040;28;20487;-82
2022/11/19 10:03:46;;;;;;;24.73;22.03;;;5.10;99.90;;;;;;4987384;28;20503;-83
2022/11/19 10:06:27;;;;;;;24.57;20.90;;;4.90;99.90;;;;;;4988044;28;20443;-83
2022/11/19 10:09:12;;;;;;;29.37;26.57;;;4.90;99.90;;;;;;4987085;28;21016;-82
2022/11/19 10:11:52;;;;;;;27.10;21.20;;;5.00;99.90;;;;;;4987491;28;20450;-84
2022/11/19 10:14:44;;;;;;;24.70;17.47;;;5.00;99.90;;;;;;4987427;28;20489;-83
2022/11/19 10:17:33;;;;;;;25.67;23.00;;;5.00;99.90;;;;;;4987316;28;21003;-84
2022/11/19 10:20:20;;;;;;;21.53;19.27;;;5.00;99.90;;;;;;4984505;28;20609;-82
2022/11/19 10:22:56;;;;;;;25.27;22.30;;;4.90;99.90;;;;;;4986338;28;20454;-83
2022/11/19 10:25:33;;;;;;;26.00;21.67;;;4.90;99.90;;;;;;4987426;28;20455;-82
2022/11/19 10:28:11;;;;;;;20.50;16.00;;;4.90;99.90;;;;;;4988839;28;20505;-82
2022/11/19 10:30:42;;;;;;;19.47;16.43;;;5.00;99.90;;;;;;4985447;28;20469;-82
2022/11/19 10:33:16;;;;;;;30.30;23.93;;;4.90;99.90;;;;;;4985265;28;20451;-82
2022/11/19 10:35:47;;;;;;;23.37;15.60;;;5.00;99.90;;;;;;4984675;28;20436;-83
2022/11/19 10:38:21;;;;;;;28.27;19.10;;;4.90;99.90;;;;;;4981619;28;20989;-83
2022/11/19 10:40:53;;;;;;;23.70;16.30;;;4.90;99.90;;;;;;4973839;28;20998;-82
2022/11/19 10:43:26;;;;;;;22.80;17.07;;;4.90;99.90;;;;;;4978729;28;20466;-83
2022/11/19 10:45:56;;;;;;;23.17;15.97;;;4.90;99.90;;;;;;4983325;28;20460;-84
2022/11/19 10:48:24;;;;;;;23.40;17.70;;;5.00;99.90;;;;;;4982236;28;20467;-83
2022/11/19 10:51:01;;;;;;;28.63;26.13;;;5.00;99.90;;;;;;4985329;28;21027;-83
2022/11/19 10:53:35;;;;;;;25.63;21.77;;;5.10;99.90;;;;;;4983739;28;20487;-83
2022/11/19 10:56:16;;;;;;;24.97;22.27;;;5.10;99.90;;;;;;4983703;28;20454;-83
2022/11/19 10:58:48;;;;;;;22.07;15.17;;;5.20;99.90;;;;;;4985078;28;20474;-83
2022/11/19 11:01:23;;;;;;;21.60;16.33;;;5.20;99.90;;;;;;4984887;28;21040;-83
2022/11/19 11:03:58;;;;;;;21.60;14.43;;;5.20;99.90;;;;;;4985806;28;20542;-83
2022/11/19 11:06:27;;;;;;;18.03;12.33;;;5.30;99.90;;;;;;4985055;28;20530;-83
2022/11/19 11:08:55;;;;;;;18.70;13.70;;;5.20;99.90;;;;;;4983133;28;20477;-83
2022/11/19 11:14:50;;;;;;;22.43;20.20;;;5.40;99.90;;;;;;4984505;28;20482;-83
2022/11/19 11:17:03;;;;;;;15.60;10.33;;;5.30;99.90;;;;;;4985271;28;20514;-83
2022/11/19 11:19:32;;;;;;;22.50;13.97;;;5.20;99.90;;;;;;4982579;28;20590;-83
2022/11/19 11:21:59;;;;;;;22.97;14.17;;;5.20;99.90;;;;;;4983439;28;20453;-83
2022/11/19 11:24:32;;;;;;;17.77;13.73;;;5.20;99.90;;;;;;4983708;28;20447;-84
2022/11/19 11:27:24;;;;;;;20.53;12.93;;;5.20;99.90;;;;;;4986334;28;20456;-83
2022/11/19 11:30:05;;;;;;;23.70;14.10;;;5.20;99.90;;;;;;4984477;28;20541;-83
2022/11/19 11:32:33;;;;;;;17.70;12.20;;;5.40;99.90;;;;;;4984294;28;20965;-83
2022/11/19 11:35:00;;;;;;;20.83;12.10;;;5.20;99.90;;;;;;4985140;28;20459;-83
2022/11/19 11:37:27;;;;;;;17.23;12.17;;;5.20;99.90;;;;;;4985024;28;20451;-82
2022/11/19 11:39:55;;;;;;;17.57;11.90;;;5.20;99.90;;;;;;4986082;28;20501;-83
2022/11/19 11:42:27;;;;;;;19.50;11.47;;;5.40;99.90;;;;;;4982446;28;20462;-84
2022/11/19 11:44:56;;;;;;;19.23;11.77;;;5.20;99.90;;;;;;4983930;28;20447;-84
2022/11/19 11:47:26;;;;;;;19.87;12.27;;;5.30;99.90;;;;;;4983205;28;20451;-82
2022/11/19 11:50:04;;;;;;;19.70;11.63;;;5.20;99.90;;;;;;4984850;28;20459;-81
2022/11/19 11:52:34;;;;;;;21.53;13.07;;;5.20;99.90;;;;;;4985099;28;20563;-86
2022/11/19 11:55:03;;;;;;;19.77;12.30;;;5.20;99.90;;;;;;4985418;28;20447;-83
2022/11/19 11:57:33;;;;;;;18.80;11.27;;;5.10;99.90;;;;;;4987696;28;20535;-83
2022/11/19 12:00:00;;;;;;;19.23;11.70;;;5.20;99.90;;;;;;4988229;28;20526;-84
2022/11/19 12:02:30;;;;;;;17.50;11.83;;;5.20;99.90;;;;;;4988854;28;20462;-84
2022/11/19 12:05:00;;;;;;;19.20;12.80;;;5.40;99.90;;;;;;4988129;28;20494;-83
2022/11/19 12:07:53;;;;;;;21.83;12.33;;;5.50;99.90;;;;;;4986771;28;20447;-82
2022/11/19 12:10:29;;;;;;;21.07;13.87;;;5.60;99.90;;;;;;4985884;28;20459;-83
2022/11/19 12:13:23;;;;;;;18.30;11.80;;;5.40;99.90;;;;;;4989060;28;20526;-83
2022/11/19 12:15:59;;;;;;;17.70;10.53;;;5.30;99.90;;;;;;4989946;28;20550;-83
2022/11/19 12:18:42;;;;;;;18.73;11.57;;;5.40;99.90;;;;;;4988813;28;20479;-84
2022/11/19 12:21:12;;;;;;;16.53;10.73;;;5.40;99.90;;;;;;4987777;28;20466;-83
2022/11/19 12:23:52;;;;;;;17.50;10.40;;;5.50;99.90;;;;;;4987622;28;20450;-82
2022/11/19 12:26:29;;;;;;;17.70;10.80;;;5.50;99.90;;;;;;4988252;28;20454;-83
2022/11/19 12:29:12;;;;;;;18.40;10.33;;;5.50;99.90;;;;;;4987045;28;20484;-83
2022/11/19 12:31:59;;;;;;;17.00;9.90;;;5.60;99.90;;;;;;4987564;28;20465;-83
2022/11/19 12:34:49;;;;;;;19.37;11.03;;;5.60;99.90;;;;;;4984075;28;20447;-82
2022/11/19 12:37:27;;;;;;;18.47;11.13;;;5.60;99.90;;;;;;4983540;28;20473;-81
2022/11/19 12:39:58;;;;;;;18.03;11.13;;;5.60;99.90;;;;;;4983845;28;21044;-82
2022/11/19 12:42:46;;;;;;;19.67;13.00;;;5.60;99.90;;;;;;4986288;28;20545;-83
2022/11/19 12:45:25;;;;;;;18.80;11.40;;;5.60;99.90;;;;;;4964853;29;20460;-82
2022/11/19 12:48:30;;;;;;;18.57;11.83;;;5.60;99.90;;;;;;4966244;28;20490;-82
2022/11/19 12:51:05;;;;;;;18.33;10.23;;;5.40;99.90;;;;;;4932341;28;20458;-83
2022/11/19 12:53:52;;;;;;;21.20;11.03;;;5.50;99.90;;;;;;4974100;28;20454;-82
2022/11/19 12:56:33;;;;;;;18.33;10.77;;;5.40;99.90;;;;;;4964614;28;20539;-82
2022/11/19 12:59:10;;;;;;;17.23;11.20;;;5.40;99.90;;;;;;4963418;28;20494;-82
2022/11/19 13:01:43;;;;;;;15.33;9.53;;;5.30;99.90;;;;;;4972252;28;20481;-83